sensor_id;sensor_type;location;lat;lon;timestamp;P1;durP1;ratioP1;P2;durP2;ratioP2
21894;SDS011;11112;51.270;7.224;2023-01-26T00:00:03;60.63;;;28.25;;
21894;SDS011;11112;51.270;7.224;2023-01-26T00:02:33;62.80;;;28.30;;
21894;SDS011;11112;51.270;7.224;2023-01-26T00:05:00;63.10;;;29.90;;
21894;SDS011;11112;51.270;7.224;2023-01-26T00:07:27;64.97;;;29.80;;
21894;SDS011;11112;51.270;7.224;2023-01-26T00:09:56;61.55;;;29.77;;
21894;SDS011;11112;51.270;7.224;2023-01-26T00:12:26;62.63;;;29.30;;
21894;SDS011;11112;51.270;7.224;2023-01-26T00:14:53;71.22;;;31.42;;
21894;SDS011;11112;51.270;7.224;2023-01-26T00:17:21;64.90;;;30.65;;
21894;SDS011;11112;51.270;7.224;2023-01-26T00:19:53;70.40;;;32.75;;
21894;SDS011;11112;51.270;7.224;2023-01-26T00:22:22;72.05;;;33.17;;
21894;SDS011;11112;51.270;7.224;2023-01-26T00:24:53;70.30;;;32.35;;
21894;SDS011;11112;51.270;7.224;2023-01-26T00:27:23;73.22;;;32.25;;
21894;SDS011;11112;51.270;7.224;2023-01-26T00:29:50;74.78;;;33.35;;
21894;SDS011;11112;51.270;7.224;2023-01-26T00:32:18;70.55;;;32.05;;
21894;SDS011;11112;51.270;7.224;2023-01-26T00:34:48;80.13;;;34.30;;
21894;SDS011;11112;51.270;7.224;2023-01-26T00:37:15;74.93;;;34.58;;
21894;SDS011;11112;51.270;7.224;2023-01-26T00:39:43;76.90;;;34.55;;
21894;SDS011;11112;51.270;7.224;2023-01-26T00:42:10;76.47;;;33.70;;
21894;SDS011;11112;51.270;7.224;2023-01-26T00:44:41;73.65;;;33.97;;
21894;SDS011;11112;51.270;7.224;2023-01-26T00:47:10;77.82;;;34.35;;
21894;SDS011;11112;51.270;7.224;2023-01-26T00:49:38;76.03;;;35.28;;
21894;SDS011;11112;51.270;7.224;2023-01-26T00:52:06;78.60;;;35.00;;
21894;SDS011;11112;51.270;7.224;2023-01-26T00:54:33;77.80;;;34.05;;
21894;SDS011;11112;51.270;7.224;2023-01-26T00:57:05;76.65;;;35.63;;
21894;SDS011;11112;51.270;7.224;2023-01-26T00:59:33;76.25;;;35.08;;
21894;SDS011;11112;51.270;7.224;2023-01-26T01:02:04;73.68;;;33.35;;
21894;SDS011;11112;51.270;7.224;2023-01-26T01:04:32;74.07;;;34.55;;
21894;SDS011;11112;51.270;7.224;2023-01-26T01:07:13;75.82;;;34.60;;
21894;SDS011;11112;51.270;7.224;2023-01-26T01:09:40;79.38;;;35.05;;
21894;SDS011;11112;51.270;7.224;2023-01-26T01:12:07;76.68;;;34.95;;
21894;SDS011;11112;51.270;7.224;2023-01-26T01:14:37;83.00;;;36.72;;
21894;SDS011;11112;51.270;7.224;2023-01-26T01:17:09;84.97;;;37.40;;
21894;SDS011;11112;51.270;7.224;2023-01-26T01:19:38;79.30;;;36.05;;
21894;SDS011;11112;51.270;7.224;2023-01-26T01:22:06;88.00;;;37.75;;
21894;SDS011;11112;51.270;7.224;2023-01-26T01:24:34;81.18;;;37.22;;
21894;SDS011;11112;51.270;7.224;2023-01-26T01:27:01;85.25;;;37.40;;
21894;SDS011;11112;51.270;7.224;2023-01-26T01:29:32;84.82;;;38.55;;
21894;SDS011;11112;51.270;7.224;2023-01-26T01:31:59;77.40;;;36.03;;
21894;SDS011;11112;51.270;7.224;2023-01-26T01:34:27;81.80;;;36.25;;
21894;SDS011;11112;51.270;7.224;2023-01-26T01:36:55;83.40;;;37.13;;
21894;SDS011;11112;51.270;7.224;2023-01-26T01:39:22;78.38;;;35.00;;
21894;SDS011;11112;51.270;7.224;2023-01-26T01:41:49;80.18;;;35.85;;
21894;SDS011;11112;51.270;7.224;2023-01-26T01:44:18;73.93;;;34.00;;
21894;SDS011;11112;51.270;7.224;2023-01-26T01:46:50;83.38;;;34.80;;
21894;SDS011;11112;51.270;7.224;2023-01-26T01:49:21;84.03;;;37.20;;
21894;SDS011;11112;51.270;7.224;2023-01-26T01:51:56;80.50;;;35.53;;
21894;SDS011;11112;51.270;7.224;2023-01-26T01:54:30;78.88;;;35.40;;
21894;SDS011;11112;51.270;7.224;2023-01-26T01:57:03;82.35;;;35.40;;
21894;SDS011;11112;51.270;7.224;2023-01-26T01:59:40;82.03;;;35.47;;
21894;SDS011;11112;51.270;7.224;2023-01-26T02:02:12;81.20;;;34.72;;
21894;SDS011;11112;51.270;7.224;2023-01-26T02:04:40;79.93;;;34.70;;
21894;SDS011;11112;51.270;7.224;2023-01-26T02:07:12;77.93;;;34.60;;
21894;SDS011;11112;51.270;7.224;2023-01-26T02:09:39;79.75;;;34.85;;
21894;SDS011;11112;51.270;7.224;2023-01-26T02:12:28;79.18;;;34.80;;
21894;SDS011;11112;51.270;7.224;2023-01-26T02:14:58;78.20;;;32.90;;
21894;SDS011;11112;51.270;7.224;2023-01-26T02:17:26;78.57;;;34.47;;
21894;SDS011;11112;51.270;7.224;2023-01-26T02:19:56;83.53;;;35.45;;
21894;SDS011;11112;51.270;7.224;2023-01-26T02:22:34;75.90;;;32.50;;
21894;SDS011;11112;51.270;7.224;2023-01-26T02:25:16;76.45;;;33.70;;
21894;SDS011;11112;51.270;7.224;2023-01-26T02:27:51;81.82;;;35.13;;
21894;SDS011;11112;51.270;7.224;2023-01-26T02:30:22;84.60;;;35.70;;
21894;SDS011;11112;51.270;7.224;2023-01-26T02:32:49;87.25;;;37.90;;
21894;SDS011;11112;51.270;7.224;2023-01-26T02:35:17;86.40;;;36.72;;
21894;SDS011;11112;51.270;7.224;2023-01-26T02:37:45;87.65;;;37.38;;
21894;SDS011;11112;51.270;7.224;2023-01-26T02:40:15;85.70;;;36.97;;
21894;SDS011;11112;51.270;7.224;2023-01-26T02:42:54;80.72;;;34.60;;
21894;SDS011;11112;51.270;7.224;2023-01-26T02:45:22;81.47;;;35.72;;
21894;SDS011;11112;51.270;7.224;2023-01-26T02:47:50;82.30;;;36.88;;
21894;SDS011;11112;51.270;7.224;2023-01-26T02:50:22;77.53;;;34.85;;
21894;SDS011;11112;51.270;7.224;2023-01-26T02:52:49;82.55;;;35.80;;
21894;SDS011;11112;51.270;7.224;2023-01-26T02:55:17;82.07;;;36.65;;
21894;SDS011;11112;51.270;7.224;2023-01-26T02:57:46;83.55;;;37.40;;
21894;SDS011;11112;51.270;7.224;2023-01-26T03:00:23;80.40;;;35.42;;
21894;SDS011;11112;51.270;7.224;2023-01-26T03:02:54;78.90;;;34.25;;
21894;SDS011;11112;51.270;7.224;2023-01-26T03:05:25;80.55;;;36.05;;
21894;SDS011;11112;51.270;7.224;2023-01-26T03:07:53;77.05;;;35.53;;
21894;SDS011;11112;51.270;7.224;2023-01-26T03:10:20;81.45;;;35.63;;
21894;SDS011;11112;51.270;7.224;2023-01-26T03:12:49;72.30;;;33.22;;
21894;SDS011;11112;51.270;7.224;2023-01-26T03:15:20;80.32;;;35.08;;
21894;SDS011;11112;51.270;7.224;2023-01-26T03:18:16;84.18;;;36.53;;
21894;SDS011;11112;51.270;7.224;2023-01-26T03:21:09;86.40;;;36.25;;
21894;SDS011;11112;51.270;7.224;2023-01-26T03:23:56;88.50;;;38.50;;
21894;SDS011;11112;51.270;7.224;2023-01-26T03:26:42;82.05;;;36.45;;
21894;SDS011;11112;51.270;7.224;2023-01-26T03:29:28;78.68;;;34.65;;
21894;SDS011;11112;51.270;7.224;2023-01-26T03:32:03;91.18;;;38.03;;
21894;SDS011;11112;51.270;7.224;2023-01-26T03:34:32;89.22;;;38.53;;
21894;SDS011;11112;51.270;7.224;2023-01-26T03:37:00;88.70;;;38.03;;
21894;SDS011;11112;51.270;7.224;2023-01-26T03:39:30;84.05;;;36.60;;
21894;SDS011;11112;51.270;7.224;2023-01-26T03:42:18;81.45;;;36.78;;
21894;SDS011;11112;51.270;7.224;2023-01-26T03:45:04;82.22;;;36.28;;
21894;SDS011;11112;51.270;7.224;2023-01-26T03:47:52;84.13;;;36.20;;
21894;SDS011;11112;51.270;7.224;2023-01-26T03:50:36;80.20;;;34.85;;
21894;SDS011;11112;51.270;7.224;2023-01-26T03:53:23;81.38;;;35.40;;
21894;SDS011;11112;51.270;7.224;2023-01-26T03:56:09;81.45;;;35.15;;
21894;SDS011;11112;51.270;7.224;2023-01-26T03:58:42;84.75;;;36.83;;
21894;SDS011;11112;51.270;7.224;2023-01-26T04:01:09;81.07;;;34.85;;
21894;SDS011;11112;51.270;7.224;2023-01-26T04:07:12;86.30;;;36.90;;
21894;SDS011;11112;51.270;7.224;2023-01-26T04:09:57;92.18;;;37.67;;
21894;SDS011;11112;51.270;7.224;2023-01-26T04:12:24;90.70;;;39.05;;
21894;SDS011;11112;51.270;7.224;2023-01-26T04:14:51;86.50;;;38.00;;
21894;SDS011;11112;51.270;7.224;2023-01-26T04:17:36;88.90;;;37.22;;
21894;SDS011;11112;51.270;7.224;2023-01-26T04:20:23;89.22;;;38.00;;
21894;SDS011;11112;51.270;7.224;2023-01-26T04:23:15;86.68;;;36.95;;
21894;SDS011;11112;51.270;7.224;2023-01-26T04:25:44;86.07;;;37.28;;
21894;SDS011;11112;51.270;7.224;2023-01-26T04:28:12;87.57;;;37.20;;
21894;SDS011;11112;51.270;7.224;2023-01-26T04:30:40;82.50;;;35.70;;
21894;SDS011;11112;51.270;7.224;2023-01-26T04:33:08;77.95;;;34.67;;
21894;SDS011;11112;51.270;7.224;2023-01-26T04:35:37;79.03;;;34.83;;
21894;SDS011;11112;51.270;7.224;2023-01-26T04:38:05;77.15;;;33.65;;
21894;SDS011;11112;51.270;7.224;2023-01-26T04:40:32;80.25;;;34.05;;
21894;SDS011;11112;51.270;7.224;2023-01-26T04:42:59;76.18;;;33.58;;
21894;SDS011;11112;51.270;7.224;2023-01-26T04:45:27;78.57;;;33.42;;
21894;SDS011;11112;51.270;7.224;2023-01-26T04:47:56;80.15;;;35.03;;
21894;SDS011;11112;51.270;7.224;2023-01-26T04:50:26;76.57;;;34.30;;
21894;SDS011;11112;51.270;7.224;2023-01-26T04:52:54;77.13;;;34.05;;
21894;SDS011;11112;51.270;7.224;2023-01-26T04:55:21;76.13;;;33.42;;
21894;SDS011;11112;51.270;7.224;2023-01-26T04:57:49;81.53;;;35.80;;
21894;SDS011;11112;51.270;7.224;2023-01-26T05:00:17;86.78;;;36.83;;
21894;SDS011;11112;51.270;7.224;2023-01-26T05:02:46;79.55;;;36.50;;
21894;SDS011;11112;51.270;7.224;2023-01-26T05:05:13;81.88;;;36.63;;
21894;SDS011;11112;51.270;7.224;2023-01-26T05:07:44;85.75;;;36.78;;
21894;SDS011;11112;51.270;7.224;2023-01-26T05:10:18;82.57;;;36.90;;
21894;SDS011;11112;51.270;7.224;2023-01-26T05:12:45;83.93;;;36.47;;
21894;SDS011;11112;51.270;7.224;2023-01-26T05:15:12;81.35;;;36.45;;
21894;SDS011;11112;51.270;7.224;2023-01-26T05:17:40;84.05;;;35.92;;
21894;SDS011;11112;51.270;7.224;2023-01-26T05:20:08;89.20;;;37.58;;
21894;SDS011;11112;51.270;7.224;2023-01-26T05:22:36;83.28;;;36.05;;
21894;SDS011;11112;51.270;7.224;2023-01-26T05:25:04;79.57;;;35.88;;
21894;SDS011;11112;51.270;7.224;2023-01-26T05:27:35;80.22;;;36.58;;
21894;SDS011;11112;51.270;7.224;2023-01-26T05:30:07;78.45;;;35.33;;
21894;SDS011;11112;51.270;7.224;2023-01-26T05:32:37;74.90;;;33.88;;
21894;SDS011;11112;51.270;7.224;2023-01-26T05:35:05;77.57;;;33.08;;
21894;SDS011;11112;51.270;7.224;2023-01-26T05:37:35;74.07;;;33.28;;
21894;SDS011;11112;51.270;7.224;2023-01-26T05:40:08;74.00;;;33.50;;
21894;SDS011;11112;51.270;7.224;2023-01-26T05:42:38;81.45;;;35.05;;
21894;SDS011;11112;51.270;7.224;2023-01-26T05:45:05;69.40;;;31.83;;
21894;SDS011;11112;51.270;7.224;2023-01-26T05:47:34;70.63;;;32.10;;
21894;SDS011;11112;51.270;7.224;2023-01-26T05:50:04;69.63;;;32.88;;
21894;SDS011;11112;51.270;7.224;2023-01-26T05:52:32;67.38;;;31.65;;
21894;SDS011;11112;51.270;7.224;2023-01-26T05:55:05;71.35;;;32.72;;
21894;SDS011;11112;51.270;7.224;2023-01-26T05:57:35;70.72;;;32.90;;
21894;SDS011;11112;51.270;7.224;2023-01-26T06:02:55;68.90;;;31.13;;
21894;SDS011;11112;51.270;7.224;2023-01-26T06:05:23;69.20;;;31.77;;
21894;SDS011;11112;51.270;7.224;2023-01-26T06:07:53;71.60;;;32.95;;
21894;SDS011;11112;51.270;7.224;2023-01-26T06:10:26;72.25;;;32.85;;
21894;SDS011;11112;51.270;7.224;2023-01-26T06:12:55;75.55;;;34.05;;
21894;SDS011;11112;51.270;7.224;2023-01-26T06:15:23;70.47;;;32.33;;
21894;SDS011;11112;51.270;7.224;2023-01-26T06:17:50;73.05;;;33.38;;
21894;SDS011;11112;51.270;7.224;2023-01-26T06:20:20;72.82;;;33.92;;
21894;SDS011;11112;51.270;7.224;2023-01-26T06:22:47;73.00;;;33.30;;
21894;SDS011;11112;51.270;7.224;2023-01-26T06:25:15;76.32;;;34.03;;
21894;SDS011;11112;51.270;7.224;2023-01-26T06:27:46;77.97;;;34.50;;
21894;SDS011;11112;51.270;7.224;2023-01-26T06:30:15;76.97;;;35.33;;
21894;SDS011;11112;51.270;7.224;2023-01-26T06:32:46;75.22;;;34.67;;
21894;SDS011;11112;51.270;7.224;2023-01-26T06:35:13;76.55;;;34.75;;
21894;SDS011;11112;51.270;7.224;2023-01-26T06:37:41;79.93;;;35.53;;
21894;SDS011;11112;51.270;7.224;2023-01-26T06:40:09;77.97;;;35.58;;
21894;SDS011;11112;51.270;7.224;2023-01-26T06:42:38;81.80;;;35.60;;
21894;SDS011;11112;51.270;7.224;2023-01-26T06:45:06;80.45;;;36.20;;
21894;SDS011;11112;51.270;7.224;2023-01-26T06:47:46;77.07;;;34.75;;
21894;SDS011;11112;51.270;7.224;2023-01-26T06:50:19;80.35;;;35.60;;
21894;SDS011;11112;51.270;7.224;2023-01-26T06:52:53;76.03;;;34.70;;
21894;SDS011;11112;51.270;7.224;2023-01-26T06:55:27;78.63;;;35.58;;
21894;SDS011;11112;51.270;7.224;2023-01-26T06:57:59;77.63;;;35.15;;
21894;SDS011;11112;51.270;7.224;2023-01-26T07:00:27;75.68;;;35.42;;
21894;SDS011;11112;51.270;7.224;2023-01-26T07:02:55;78.25;;;36.20;;
21894;SDS011;11112;51.270;7.224;2023-01-26T07:05:22;78.68;;;35.40;;
21894;SDS011;11112;51.270;7.224;2023-01-26T07:07:51;80.38;;;35.40;;
21894;SDS011;11112;51.270;7.224;2023-01-26T07:10:19;73.95;;;34.72;;
21894;SDS011;11112;51.270;7.224;2023-01-26T07:12:46;71.35;;;32.72;;
21894;SDS011;11112;51.270;7.224;2023-01-26T07:15:14;73.95;;;34.00;;
21894;SDS011;11112;51.270;7.224;2023-01-26T07:17:41;72.68;;;34.13;;
21894;SDS011;11112;51.270;7.224;2023-01-26T07:20:17;75.18;;;33.92;;
21894;SDS011;11112;51.270;7.224;2023-01-26T07:22:46;78.85;;;34.38;;
21894;SDS011;11112;51.270;7.224;2023-01-26T07:25:14;72.95;;;32.63;;
21894;SDS011;11112;51.270;7.224;2023-01-26T07:27:42;72.32;;;33.40;;
21894;SDS011;11112;51.270;7.224;2023-01-26T07:30:11;73.35;;;35.13;;
21894;SDS011;11112;51.270;7.224;2023-01-26T07:32:40;69.85;;;32.30;;
21894;SDS011;11112;51.270;7.224;2023-01-26T07:35:09;72.57;;;34.08;;
21894;SDS011;11112;51.270;7.224;2023-01-26T07:37:38;75.53;;;34.35;;
21894;SDS011;11112;51.270;7.224;2023-01-26T07:40:06;78.25;;;34.58;;
21894;SDS011;11112;51.270;7.224;2023-01-26T07:42:35;78.40;;;35.28;;
21894;SDS011;11112;51.270;7.224;2023-01-26T07:45:03;76.15;;;34.63;;
21894;SDS011;11112;51.270;7.224;2023-01-26T07:47:31;76.95;;;35.20;;
21894;SDS011;11112;51.270;7.224;2023-01-26T07:50:00;76.10;;;35.03;;
21894;SDS011;11112;51.270;7.224;2023-01-26T07:52:27;75.40;;;34.58;;
21894;SDS011;11112;51.270;7.224;2023-01-26T07:54:58;75.57;;;33.40;;
21894;SDS011;11112;51.270;7.224;2023-01-26T07:57:26;77.15;;;35.30;;
21894;SDS011;11112;51.270;7.224;2023-01-26T07:59:53;77.80;;;34.85;;
21894;SDS011;11112;51.270;7.224;2023-01-26T08:02:25;76.82;;;34.30;;
21894;SDS011;11112;51.270;7.224;2023-01-26T08:04:53;73.88;;;34.53;;
21894;SDS011;11112;51.270;7.224;2023-01-26T08:07:25;82.78;;;38.00;;
21894;SDS011;11112;51.270;7.224;2023-01-26T08:09:52;80.55;;;36.15;;
21894;SDS011;11112;51.270;7.224;2023-01-26T08:12:25;75.13;;;34.33;;
21894;SDS011;11112;51.270;7.224;2023-01-26T08:14:54;75.00;;;33.80;;
21894;SDS011;11112;51.270;7.224;2023-01-26T08:17:27;70.05;;;32.97;;
21894;SDS011;11112;51.270;7.224;2023-01-26T08:19:55;69.75;;;33.03;;
21894;SDS011;11112;51.270;7.224;2023-01-26T08:22:22;74.32;;;34.28;;
21894;SDS011;11112;51.270;7.224;2023-01-26T08:24:50;71.47;;;32.42;;
21894;SDS011;11112;51.270;7.224;2023-01-26T08:27:17;73.72;;;34.45;;
21894;SDS011;11112;51.270;7.224;2023-01-26T08:29:46;72.03;;;32.65;;
21894;SDS011;11112;51.270;7.224;2023-01-26T08:32:13;70.20;;;32.42;;
21894;SDS011;11112;51.270;7.224;2023-01-26T08:34:43;67.68;;;31.90;;
21894;SDS011;11112;51.270;7.224;2023-01-26T08:37:12;71.85;;;32.47;;
21894;SDS011;11112;51.270;7.224;2023-01-26T08:39:39;66.22;;;31.08;;
21894;SDS011;11112;51.270;7.224;2023-01-26T08:42:07;69.15;;;31.35;;
21894;SDS011;11112;51.270;7.224;2023-01-26T08:44:34;70.32;;;33.15;;
21894;SDS011;11112;51.270;7.224;2023-01-26T08:47:06;69.35;;;32.17;;
21894;SDS011;11112;51.270;7.224;2023-01-26T08:49:35;75.22;;;34.20;;
21894;SDS011;11112;51.270;7.224;2023-01-26T08:52:05;73.13;;;34.08;;
21894;SDS011;11112;51.270;7.224;2023-01-26T08:54:45;69.85;;;32.50;;
21894;SDS011;11112;51.270;7.224;2023-01-26T08:57:12;69.75;;;33.40;;
21894;SDS011;11112;51.270;7.224;2023-01-26T08:59:40;65.85;;;32.45;;
21894;SDS011;11112;51.270;7.224;2023-01-26T09:02:09;70.40;;;32.97;;
21894;SDS011;11112;51.270;7.224;2023-01-26T09:04:37;71.88;;;33.15;;
21894;SDS011;11112;51.270;7.224;2023-01-26T09:07:06;69.93;;;33.03;;
21894;SDS011;11112;51.270;7.224;2023-01-26T09:09:33;69.18;;;31.05;;
21894;SDS011;11112;51.270;7.224;2023-01-26T09:12:02;68.15;;;32.13;;
21894;SDS011;11112;51.270;7.224;2023-01-26T09:14:30;67.85;;;32.40;;
21894;SDS011;11112;51.270;7.224;2023-01-26T09:16:57;68.45;;;32.25;;
21894;SDS011;11112;51.270;7.224;2023-01-26T09:19:26;69.55;;;32.45;;
21894;SDS011;11112;51.270;7.224;2023-01-26T09:21:54;67.45;;;31.10;;
21894;SDS011;11112;51.270;7.224;2023-01-26T09:24:22;66.15;;;31.67;;
21894;SDS011;11112;51.270;7.224;2023-01-26T09:26:50;67.28;;;31.73;;
21894;SDS011;11112;51.270;7.224;2023-01-26T09:29:18;66.10;;;30.90;;
21894;SDS011;11112;51.270;7.224;2023-01-26T09:31:45;66.55;;;30.98;;
21894;SDS011;11112;51.270;7.224;2023-01-26T09:34:13;66.72;;;31.58;;
21894;SDS011;11112;51.270;7.224;2023-01-26T09:36:41;67.97;;;32.28;;
21894;SDS011;11112;51.270;7.224;2023-01-26T09:39:11;67.97;;;30.90;;
21894;SDS011;11112;51.270;7.224;2023-01-26T09:41:43;70.10;;;31.58;;
21894;SDS011;11112;51.270;7.224;2023-01-26T09:48:24;66.13;;;30.92;;
21894;SDS011;11112;51.270;7.224;2023-01-26T09:51:08;70.40;;;31.02;;
21894;SDS011;11112;51.270;7.224;2023-01-26T09:54:30;65.80;;;29.55;;
21894;SDS011;11112;51.270;7.224;2023-01-26T09:57:08;65.18;;;29.35;;
21894;SDS011;11112;51.270;7.224;2023-01-26T09:59:40;65.45;;;29.58;;
21894;SDS011;11112;51.270;7.224;2023-01-26T10:02:19;66.22;;;30.25;;
21894;SDS011;11112;51.270;7.224;2023-01-26T10:05:05;66.55;;;28.73;;
21894;SDS011;11112;51.270;7.224;2023-01-26T10:08:17;66.75;;;29.38;;
21894;SDS011;11112;51.270;7.224;2023-01-26T10:10:54;68.03;;;30.80;;
21894;SDS011;11112;51.270;7.224;2023-01-26T10:13:25;63.65;;;29.92;;
21894;SDS011;11112;51.270;7.224;2023-01-26T10:15:56;65.45;;;29.83;;
21894;SDS011;11112;51.270;7.224;2023-01-26T10:18:27;67.40;;;30.05;;
21894;SDS011;11112;51.270;7.224;2023-01-26T10:21:00;65.17;;;29.70;;
21894;SDS011;11112;51.270;7.224;2023-01-26T10:23:31;60.83;;;27.30;;
21894;SDS011;11112;51.270;7.224;2023-01-26T10:26:08;60.10;;;27.83;;
21894;SDS011;11112;51.270;7.224;2023-01-26T10:28:39;57.90;;;27.67;;
21894;SDS011;11112;51.270;7.224;2023-01-26T10:31:10;58.90;;;27.33;;
21894;SDS011;11112;51.270;7.224;2023-01-26T10:33:42;54.70;;;26.25;;
21894;SDS011;11112;51.270;7.224;2023-01-26T10:36:17;55.97;;;25.67;;
21894;SDS011;11112;51.270;7.224;2023-01-26T10:38:45;61.15;;;27.15;;
21894;SDS011;11112;51.270;7.224;2023-01-26T10:41:33;58.40;;;25.88;;
21894;SDS011;11112;51.270;7.224;2023-01-26T10:44:02;66.10;;;28.02;;
21894;SDS011;11112;51.270;7.224;2023-01-26T10:46:46;63.83;;;28.00;;
21894;SDS011;11112;51.270;7.224;2023-01-26T10:49:32;61.40;;;28.55;;
21894;SDS011;11112;51.270;7.224;2023-01-26T10:52:06;60.15;;;27.50;;
21894;SDS011;11112;51.270;7.224;2023-01-26T10:54:41;66.90;;;28.63;;
21894;SDS011;11112;51.270;7.224;2023-01-26T11:00:05;66.90;;;28.30;;
21894;SDS011;11112;51.270;7.224;2023-01-26T11:02:48;61.58;;;27.58;;
21894;SDS011;11112;51.270;7.224;2023-01-26T11:05:21;65.28;;;28.40;;
21894;SDS011;11112;51.270;7.224;2023-01-26T11:07:50;61.78;;;28.38;;
21894;SDS011;11112;51.270;7.224;2023-01-26T11:10:28;59.83;;;26.98;;
21894;SDS011;11112;51.270;7.224;2023-01-26T11:13:11;63.70;;;28.75;;
21894;SDS011;11112;51.270;7.224;2023-01-26T11:15:43;68.43;;;28.25;;
21894;SDS011;11112;51.270;7.224;2023-01-26T11:18:26;65.85;;;29.30;;
21894;SDS011;11112;51.270;7.224;2023-01-26T11:21:08;60.45;;;27.92;;
21894;SDS011;11112;51.270;7.224;2023-01-26T11:23:55;59.30;;;27.25;;
21894;SDS011;11112;51.270;7.224;2023-01-26T11:29:43;56.45;;;26.20;;
21894;SDS011;11112;51.270;7.224;2023-01-26T11:32:36;56.65;;;25.48;;
21894;SDS011;11112;51.270;7.224;2023-01-26T11:35:21;58.53;;;25.58;;
21894;SDS011;11112;51.270;7.224;2023-01-26T11:38:00;54.63;;;25.20;;
21894;SDS011;11112;51.270;7.224;2023-01-26T11:43:52;56.97;;;25.30;;
21894;SDS011;11112;51.270;7.224;2023-01-26T11:50:01;52.17;;;23.30;;
21894;SDS011;11112;51.270;7.224;2023-01-26T11:52:54;51.97;;;23.70;;
21894;SDS011;11112;51.270;7.224;2023-01-26T11:55:44;47.38;;;22.63;;
21894;SDS011;11112;51.270;7.224;2023-01-26T11:58:29;49.28;;;22.95;;
21894;SDS011;11112;51.270;7.224;2023-01-26T12:01:05;43.42;;;20.15;;
21894;SDS011;11112;51.270;7.224;2023-01-26T12:03:42;47.47;;;22.92;;
21894;SDS011;11112;51.270;7.224;2023-01-26T12:06:14;49.80;;;22.80;;
21894;SDS011;11112;51.270;7.224;2023-01-26T12:08:44;47.38;;;22.23;;
21894;SDS011;11112;51.270;7.224;2023-01-26T12:11:19;42.67;;;22.05;;
21894;SDS011;11112;51.270;7.224;2023-01-26T12:14:01;45.35;;;21.20;;
21894;SDS011;11112;51.270;7.224;2023-01-26T12:16:43;42.95;;;19.45;;
21894;SDS011;11112;51.270;7.224;2023-01-26T12:19:30;42.42;;;20.20;;
21894;SDS011;11112;51.270;7.224;2023-01-26T12:22:11;38.88;;;19.33;;
21894;SDS011;11112;51.270;7.224;2023-01-26T12:24:47;39.30;;;18.95;;
21894;SDS011;11112;51.270;7.224;2023-01-26T12:27:21;37.33;;;19.33;;
21894;SDS011;11112;51.270;7.224;2023-01-26T12:30:00;34.80;;;18.05;;
21894;SDS011;11112;51.270;7.224;2023-01-26T12:32:41;35.80;;;18.02;;
21894;SDS011;11112;51.270;7.224;2023-01-26T12:35:12;31.45;;;16.63;;
21894;SDS011;11112;51.270;7.224;2023-01-26T12:37:55;32.85;;;16.80;;
21894;SDS011;11112;51.270;7.224;2023-01-26T12:40:29;30.40;;;16.50;;
21894;SDS011;11112;51.270;7.224;2023-01-26T12:43:13;30.52;;;16.63;;
21894;SDS011;11112;51.270;7.224;2023-01-26T12:45:51;28.10;;;15.18;;
21894;SDS011;11112;51.270;7.224;2023-01-26T12:48:21;26.38;;;14.93;;
21894;SDS011;11112;51.270;7.224;2023-01-26T12:50:57;26.88;;;15.30;;
21894;SDS011;11112;51.270;7.224;2023-01-26T12:53:30;25.00;;;13.43;;
21894;SDS011;11112;51.270;7.224;2023-01-26T12:56:07;21.05;;;11.82;;
21894;SDS011;11112;51.270;7.224;2023-01-26T12:58:40;26.35;;;13.45;;
21894;SDS011;11112;51.270;7.224;2023-01-26T13:01:10;26.08;;;13.93;;
21894;SDS011;11112;51.270;7.224;2023-01-26T13:03:41;24.85;;;14.00;;
21894;SDS011;11112;51.270;7.224;2023-01-26T13:06:19;24.65;;;13.80;;
21894;SDS011;11112;51.270;7.224;2023-01-26T13:08:51;23.90;;;13.07;;
21894;SDS011;11112;51.270;7.224;2023-01-26T13:11:48;22.67;;;12.77;;
21894;SDS011;11112;51.270;7.224;2023-01-26T13:29:29;17.83;;;9.93;;
21894;SDS011;11112;51.270;7.224;2023-01-26T13:32:00;19.00;;;10.07;;
21894;SDS011;11112;51.270;7.224;2023-01-26T13:35:13;17.48;;;9.75;;
21894;SDS011;11112;51.270;7.224;2023-01-26T13:37:45;17.27;;;9.20;;
21894;SDS011;11112;51.270;7.224;2023-01-26T13:40:25;14.85;;;9.10;;
21894;SDS011;11112;51.270;7.224;2023-01-26T13:43:00;15.07;;;9.02;;
21894;SDS011;11112;51.270;7.224;2023-01-26T13:45:38;15.50;;;9.45;;
21894;SDS011;11112;51.270;7.224;2023-01-26T13:48:19;17.05;;;10.23;;
21894;SDS011;11112;51.270;7.224;2023-01-26T13:50:59;17.05;;;9.93;;
21894;SDS011;11112;51.270;7.224;2023-01-26T13:53:31;13.48;;;8.85;;
21894;SDS011;11112;51.270;7.224;2023-01-26T13:56:03;15.52;;;8.95;;
21894;SDS011;11112;51.270;7.224;2023-01-26T13:58:45;18.08;;;8.77;;
21894;SDS011;11112;51.270;7.224;2023-01-26T14:01:13;17.00;;;9.30;;
21894;SDS011;11112;51.270;7.224;2023-01-26T14:03:42;15.63;;;8.60;;
21894;SDS011;11112;51.270;7.224;2023-01-26T14:06:10;13.98;;;8.57;;
21894;SDS011;11112;51.270;7.224;2023-01-26T14:08:47;13.88;;;7.90;;
21894;SDS011;11112;51.270;7.224;2023-01-26T14:13:49;14.27;;;8.30;;
21894;SDS011;11112;51.270;7.224;2023-01-26T14:16:21;13.18;;;7.88;;
21894;SDS011;11112;51.270;7.224;2023-01-26T14:19:02;12.82;;;7.20;;
21894;SDS011;11112;51.270;7.224;2023-01-26T14:21:31;10.10;;;6.55;;
21894;SDS011;11112;51.270;7.224;2023-01-26T14:24:13;12.13;;;6.95;;
21894;SDS011;11112;51.270;7.224;2023-01-26T14:27:22;11.10;;;6.35;;
21894;SDS011;11112;51.270;7.224;2023-01-26T14:29:59;9.18;;;5.70;;
21894;SDS011;11112;51.270;7.224;2023-01-26T14:32:44;10.77;;;6.90;;
21894;SDS011;11112;51.270;7.224;2023-01-26T14:35:17;10.73;;;6.13;;
21894;SDS011;11112;51.270;7.224;2023-01-26T14:37:47;11.57;;;6.15;;
21894;SDS011;11112;51.270;7.224;2023-01-26T14:40:17;8.55;;;5.90;;
21894;SDS011;11112;51.270;7.224;2023-01-26T14:42:54;9.20;;;5.90;;
21894;SDS011;11112;51.270;7.224;2023-01-26T14:45:24;11.65;;;6.55;;
21894;SDS011;11112;51.270;7.224;2023-01-26T14:47:56;11.30;;;6.07;;
21894;SDS011;11112;51.270;7.224;2023-01-26T14:50:25;9.82;;;6.22;;
21894;SDS011;11112;51.270;7.224;2023-01-26T14:52:56;10.57;;;7.03;;
21894;SDS011;11112;51.270;7.224;2023-01-26T14:55:25;16.20;;;7.57;;
21894;SDS011;11112;51.270;7.224;2023-01-26T14:57:57;18.70;;;8.55;;
21894;SDS011;11112;51.270;7.224;2023-01-26T15:00:27;19.40;;;8.82;;
21894;SDS011;11112;51.270;7.224;2023-01-26T15:02:58;21.52;;;9.70;;
21894;SDS011;11112;51.270;7.224;2023-01-26T15:05:30;26.40;;;10.80;;
21894;SDS011;11112;51.270;7.224;2023-01-26T15:08:00;22.67;;;10.20;;
21894;SDS011;11112;51.270;7.224;2023-01-26T15:10:42;24.92;;;10.57;;
21894;SDS011;11112;51.270;7.224;2023-01-26T15:13:22;24.48;;;11.45;;
21894;SDS011;11112;51.270;7.224;2023-01-26T15:16:00;27.13;;;11.65;;
21894;SDS011;11112;51.270;7.224;2023-01-26T15:18:30;27.67;;;11.93;;
21894;SDS011;11112;51.270;7.224;2023-01-26T15:20:59;23.75;;;11.60;;
21894;SDS011;11112;51.270;7.224;2023-01-26T15:23:41;27.70;;;12.85;;
21894;SDS011;11112;51.270;7.224;2023-01-26T15:26:12;28.63;;;13.50;;
21894;SDS011;11112;51.270;7.224;2023-01-26T15:28:52;33.58;;;13.60;;
21894;SDS011;11112;51.270;7.224;2023-01-26T15:31:26;26.83;;;12.52;;
21894;SDS011;11112;51.270;7.224;2023-01-26T15:34:03;27.27;;;12.90;;
21894;SDS011;11112;51.270;7.224;2023-01-26T15:36:33;29.45;;;12.95;;